Portada
METAR-TAF:

METAR-TAF

Aeroports :

Mysore, Índia

latitud: 12-13-48N, longitud: 76-39-21E, altitud: 715 m

Observació

L'informe es va fer fa 20 minuts, a les 04:30 UTC
Vent 8 kt del Est/Nord-Est
Temperatura 25°C
Humitat 74%
Pressió 1019 hPa
Visibilitat: 6000 m
Escasses núvols a una alçada de 1200 ft

METAR: VOMY 140430Z 06008KT 6000 FEW012 25/20 Q1019

Hora: 10:20 (04:50 UTC)

Pronòstic

L'informe es va fer fa 2 hores i 50 minuts, a les 02:00 UTC
Pronòstic vàlid del 14 a les 03 UTC al 14 a les 12 UTC
Vent 10 kt del Est
Visibilitat: 6000 m
Núvols disperses a una alçada de 1200 ft

TAF: VOMY 140200Z 1403/1412 09010KT 6000 SCT012

Observacions i pronòstics meteorològics de més de 4000 aeroports (METAR i TAF).

Les estacions disponibles són els punts grocs i vermells al mapa.

Posi el ratolí al punt desitjat per veure el nom de l'estació.

Feu clic per veure les observacions i els pronòstics meteorològics.

Per canviar el mapa: feu clic els botons verds amb una creu de color negre per apropar; al botó verd amb un guió per allunyar la imatge; o en les fletxes verdes per a mapes adjacents.


METAR-TAF: